createdAt,value
2023-09-01T00:02:22.564Z,100087.05
2023-09-01T00:04:56.758Z,100097.95
2023-09-01T00:07:23.567Z,100100.02
2023-09-01T00:09:53.701Z,100101.15
2023-09-01T00:12:20.556Z,100104.06
2023-09-01T00:14:47.626Z,100103.42
2023-09-01T00:17:15.151Z,100102.95
2023-09-01T00:19:42.184Z,100107.37
2023-09-01T00:22:09.135Z,100111.58
2023-09-01T00:24:36.910Z,100107.28
2023-09-01T00:27:04.246Z,100106.92
2023-09-01T00:29:34.163Z,100098.41
2023-09-01T00:32:01.858Z,100098.52
2023-09-01T00:34:31.045Z,100096.02
2023-09-01T00:36:58.289Z,100103.63
2023-09-01T00:39:25.541Z,100099.49
2023-09-01T00:41:52.390Z,100099.83
2023-09-01T00:44:19.325Z,100095.60
2023-09-01T00:46:47.226Z,100095.72
2023-09-01T00:49:18.593Z,100099.09
2023-09-01T00:51:47.740Z,100097.51
2023-09-01T00:54:15.742Z,100093.05
2023-09-01T00:56:44.110Z,100089.75
2023-09-01T00:59:11.764Z,100087.24
2023-09-01T01:01:39.141Z,100085.77
2023-09-01T01:04:08.475Z,100087.79
2023-09-01T01:06:39.862Z,100088.20
2023-09-01T01:09:27.071Z,100085.19
2023-09-01T01:12:02.467Z,100082.55
2023-09-01T01:14:52.102Z,100079.51
2023-09-01T01:17:19.918Z,100082.80
2023-09-01T01:19:51.587Z,100083.44
2023-09-01T01:22:35.257Z,100086.40
2023-09-01T01:25:09.062Z,100084.23
2023-09-01T01:27:36.540Z,100081.63
2023-09-01T01:30:05.826Z,100083.59
2023-09-01T01:32:33.700Z,100081.98
2023-09-01T01:35:20.177Z,100079.42
2023-09-01T01:38:17.398Z,100079.05
2023-09-01T01:40:48.577Z,100071.07
2023-09-01T01:43:21.857Z,100066.08
2023-09-01T01:45:50.391Z,100060.39
2023-09-01T01:48:17.798Z,100063.19
2023-09-01T01:50:45.481Z,100069.02
2023-09-01T01:53:13.706Z,100065.27
2023-09-01T01:55:40.732Z,100065.57
2023-09-01T01:58:07.661Z,100066.41
2023-09-01T02:00:35.733Z,100070.52
2023-09-01T02:03:05.352Z,100077.14
2023-09-01T02:05:33.330Z,100079.83
2023-09-01T02:08:00.261Z,100079.70
2023-09-01T02:10:28.148Z,100078.13
2023-09-01T02:12:55.815Z,100080.02
2023-09-01T02:15:22.757Z,100080.75
2023-09-01T02:17:49.543Z,100083.30
2023-09-01T02:20:19.163Z,100086.30
2023-09-01T02:22:49.097Z,100088.48
2023-09-01T02:25:16.034Z,100089.02
2023-09-01T02:27:43.686Z,100081.14
2023-09-01T02:30:12.446Z,100082.81
2023-09-01T02:32:40.384Z,100083.00
2023-09-01T02:35:09.225Z,100084.63
2023-09-01T02:37:37.616Z,100085.51
2023-09-01T02:40:11.650Z,100085.48
2023-09-01T02:42:43.186Z,100081.98
2023-09-01T02:45:14.463Z,100079.75
2023-09-01T02:47:41.623Z,100079.65
2023-09-01T02:50:09.151Z,100078.78
2023-09-01T02:52:36.482Z,100076.22
2023-09-01T02:55:07.011Z,100080.87
2023-09-01T02:57:34.180Z,100078.27
2023-09-01T03:00:01.785Z,100084.45
2023-09-01T03:02:29.766Z,100085.42
2023-09-01T03:04:57.664Z,100083.00
2023-09-01T03:07:25.310Z,100084.16
2023-09-01T03:09:52.391Z,100085.61
2023-09-01T03:12:19.334Z,100085.66
2023-09-01T03:14:46.474Z,100090.04
2023-09-01T03:17:13.427Z,100092.77
2023-09-01T03:19:40.255Z,100089.40
2023-09-01T03:22:07.130Z,100094.11
2023-09-01T03:24:35.280Z,100094.34
2023-09-01T03:27:02.429Z,100091.77
2023-09-01T03:29:29.581Z,100090.86
2023-09-01T03:31:56.490Z,100086.55
2023-09-01T03:34:24.509Z,100083.54
2023-09-01T03:36:51.445Z,100082.24
2023-09-01T03:39:18.998Z,100079.34
2023-09-01T03:41:46.152Z,100077.79
2023-09-01T03:44:13.085Z,100084.48
2023-09-01T03:46:40.974Z,100083.86
2023-09-01T03:49:07.816Z,100082.48
2023-09-01T03:51:34.644Z,100083.60
2023-09-01T03:54:01.598Z,100084.76
2023-09-01T03:56:29.239Z,100090.89
2023-09-01T03:58:57.323Z,100093.95
2023-09-01T04:01:24.210Z,100099.19
2023-09-01T04:03:51.352Z,100098.92
2023-09-01T04:06:18.475Z,100103.13
2023-09-01T04:08:45.514Z,100107.41
2023-09-01T04:11:12.469Z,100101.58
2023-09-01T04:13:39.260Z,100109.52
2023-09-01T04:16:06.605Z,100106.55
2023-09-01T04:18:34.475Z,100113.39
2023-09-01T04:21:02.453Z,100113.14
2023-09-01T04:23:29.390Z,100112.70
2023-09-01T04:25:57.470Z,100118.73
2023-09-01T04:28:24.986Z,100114.22
2023-09-01T04:30:51.928Z,100117.04
2023-09-01T04:33:19.371Z,100119.16
2023-09-01T04:35:57.070Z,100118.52
2023-09-01T04:38:24.120Z,100116.35
2023-09-01T04:40:58.521Z,100118.35
2023-09-01T04:43:27.458Z,100117.20
2023-09-01T04:45:56.160Z,100120.66
2023-09-01T04:48:24.628Z,100125.05
2023-09-01T04:50:52.364Z,100129.69
2023-09-01T04:53:21.469Z,100131.13
2023-09-01T04:55:51.472Z,100135.16
2023-09-01T04:58:18.939Z,100133.09
2023-09-01T05:00:46.159Z,100134.08
2023-09-01T05:03:14.246Z,100133.52
2023-09-01T05:05:42.331Z,100135.21
2023-09-01T05:08:09.488Z,100139.67
2023-09-01T05:10:36.824Z,100138.75
2023-09-01T05:13:05.116Z,100142.65
2023-09-01T05:15:32.476Z,100145.77
2023-09-01T05:18:00.691Z,100145.16
2023-09-01T05:20:28.303Z,100150.80
2023-09-01T05:22:55.565Z,100150.84
2023-09-01T05:25:23.317Z,100149.23
2023-09-01T05:27:50.475Z,100146.19
2023-09-01T05:30:18.153Z,100149.40
2023-09-01T05:32:45.854Z,100148.98
2023-09-01T05:35:13.057Z,100147.73
2023-09-01T05:37:40.163Z,100147.58
2023-09-01T05:40:09.075Z,100148.05
2023-09-01T05:42:36.143Z,100149.76
2023-09-01T05:45:03.594Z,100148.06
2023-09-01T05:47:30.946Z,100148.45
2023-09-01T05:49:58.409Z,100148.52
2023-09-01T05:52:26.694Z,100145.16
2023-09-01T05:54:53.934Z,100145.62
2023-09-01T05:57:21.093Z,100145.35
2023-09-01T05:59:48.341Z,100148.81
2023-09-01T06:02:15.430Z,100157.33
2023-09-01T06:04:42.850Z,100154.33
2023-09-01T06:07:10.111Z,100158.02
2023-09-01T06:09:37.237Z,100159.11
2023-09-01T06:12:05.109Z,100165.08
2023-09-01T06:14:32.367Z,100169.77
2023-09-01T06:17:00.009Z,100169.74
2023-09-01T06:19:27.297Z,100164.39
2023-09-01T06:21:54.518Z,100167.81
2023-09-01T06:24:21.784Z,100167.15
2023-09-01T06:26:49.185Z,100167.69
2023-09-01T06:29:16.901Z,100166.13
2023-09-01T06:31:44.533Z,100173.48
2023-09-01T06:34:11.903Z,100177.45
2023-09-01T06:36:39.180Z,100172.95
2023-09-01T06:39:06.928Z,100174.59
2023-09-01T06:41:34.698Z,100175.10
2023-09-01T06:44:03.283Z,100174.45
2023-09-01T06:46:30.734Z,100180.59
2023-09-01T06:48:57.981Z,100182.39
2023-09-01T06:51:25.173Z,100184.81
2023-09-01T06:53:52.829Z,100186.70
2023-09-01T06:56:20.282Z,100188.81
2023-09-01T06:58:47.828Z,100183.90
2023-09-01T07:01:17.391Z,100185.77
2023-09-01T07:03:49.778Z,100184.96
2023-09-01T07:06:28.432Z,100184.23
2023-09-01T07:08:56.385Z,100184.54
2023-09-01T07:11:23.751Z,100188.08
2023-09-01T07:13:56.404Z,100186.07
2023-09-01T07:16:24.759Z,100188.73
2023-09-01T07:18:51.933Z,100187.89
2023-09-01T07:21:18.897Z,100192.52
2023-09-01T07:23:48.393Z,100189.63
2023-09-01T07:26:16.462Z,100190.48
2023-09-01T07:28:44.128Z,100189.73
2023-09-01T07:31:13.379Z,100190.14
2023-09-01T07:33:44.302Z,100188.80
2023-09-01T07:36:12.680Z,100188.93
2023-09-01T07:38:40.923Z,100195.15
2023-09-01T07:41:09.559Z,100193.45
2023-09-01T07:43:37.173Z,100196.07
2023-09-01T07:46:04.551Z,100192.63
2023-09-01T07:48:32.545Z,100193.39
2023-09-01T07:51:00.521Z,100192.88
2023-09-01T07:53:27.834Z,100194.06
2023-09-01T07:55:56.226Z,100195.90
2023-09-01T07:58:23.484Z,100193.39
2023-09-01T08:00:52.825Z,100193.86
2023-09-01T08:03:20.583Z,100196.34
2023-09-01T08:05:48.197Z,100191.74
2023-09-01T08:08:16.150Z,100190.52
2023-09-01T08:10:43.919Z,100194.09
2023-09-01T08:13:12.104Z,100193.33
2023-09-01T08:15:40.560Z,100194.83
2023-09-01T08:18:08.148Z,100200.52
2023-09-01T08:20:37.205Z,100197.05
2023-09-01T08:23:06.133Z,100193.30
2023-09-01T08:25:36.639Z,100191.13
2023-09-01T08:28:05.949Z,100192.02
2023-09-01T08:30:35.602Z,100187.60
2023-09-01T08:33:05.092Z,100186.85
2023-09-01T08:35:33.242Z,100188.34
2023-09-01T08:38:01.211Z,100189.09
2023-09-01T08:40:28.248Z,100186.77
2023-09-01T08:42:57.862Z,100185.59
2023-09-01T08:45:27.049Z,100184.31
2023-09-01T08:47:54.379Z,100184.25
2023-09-01T08:50:22.180Z,100183.29
2023-09-01T08:52:49.942Z,100180.52
2023-09-01T08:55:18.847Z,100181.23
2023-09-01T08:57:49.858Z,100184.60
2023-09-01T09:00:17.467Z,100180.86
2023-09-01T09:03:04.916Z,100184.39
2023-09-01T09:05:34.802Z,100184.27
2023-09-01T09:08:06.808Z,100185.98
2023-09-01T09:10:36.167Z,100186.38
2023-09-01T09:13:26.202Z,100185.42
2023-09-01T09:16:09.376Z,100187.51
2023-09-01T09:18:38.109Z,100178.64
2023-09-01T09:21:29.350Z,100180.74
2023-09-01T09:24:15.293Z,100182.55
2023-09-01T09:26:46.179Z,100186.14
2023-09-01T09:29:15.374Z,100179.48
2023-09-01T09:31:42.491Z,100182.48
2023-09-01T09:34:16.466Z,100181.42
2023-09-01T09:36:46.500Z,100181.89
2023-09-01T09:39:28.028Z,100180.57
2023-09-01T09:41:57.536Z,100180.63
2023-09-01T09:44:34.625Z,100184.28
2023-09-01T09:47:11.133Z,100179.89
2023-09-01T09:49:39.069Z,100176.48
2023-09-01T09:52:10.507Z,100174.21
2023-09-01T09:54:39.423Z,100177.45
2023-09-01T09:57:13.270Z,100180.69
2023-09-01T09:59:56.030Z,100181.71
2023-09-01T10:02:37.544Z,100176.49
2023-09-01T10:05:05.804Z,100169.50
2023-09-01T10:07:34.513Z,100166.71
2023-09-01T10:10:03.156Z,100165.86
2023-09-01T10:12:30.823Z,100167.53
2023-09-01T10:14:58.689Z,100168.27
2023-09-01T10:17:26.799Z,100163.11
2023-09-01T10:19:55.443Z,100160.48
2023-09-01T10:22:23.019Z,100160.89
2023-09-01T10:25:10.035Z,100163.02
2023-09-01T10:27:37.784Z,100167.59
2023-09-01T10:30:44.693Z,100170.71
2023-09-01T10:33:13.574Z,100176.65
2023-09-01T10:35:48.501Z,100176.54
2023-09-01T10:38:21.376Z,100173.29
2023-09-01T10:40:55.455Z,100170.95
2023-09-01T10:43:37.859Z,100167.48
2023-09-01T10:46:14.645Z,100163.86
2023-09-01T10:48:52.918Z,100162.07
2023-09-01T10:51:25.592Z,100156.34
2023-09-01T10:53:54.898Z,100153.81
2023-09-01T10:56:23.395Z,100155.72
2023-09-01T10:58:53.214Z,100150.30
2023-09-01T11:01:39.233Z,100153.88
2023-09-01T11:04:16.664Z,100150.57
2023-09-01T11:07:00.998Z,100144.30
2023-09-01T11:09:37.438Z,100146.45
2023-09-01T11:12:06.992Z,100139.61
2023-09-01T11:14:37.114Z,100140.71
2023-09-01T11:17:04.750Z,100139.02
2023-09-01T11:19:48.411Z,100140.67
2023-09-01T11:22:16.055Z,100136.14
2023-09-01T11:24:47.130Z,100134.34
2023-09-01T11:27:14.663Z,100134.13
2023-09-01T11:29:42.331Z,100129.48
2023-09-01T11:32:10.292Z,100128.72
2023-09-01T11:34:39.181Z,100125.83
2023-09-01T11:37:07.983Z,100126.14
2023-09-01T11:39:36.755Z,100124.83
2023-09-01T11:42:04.963Z,100124.81
2023-09-01T11:44:32.222Z,100130.27
2023-09-01T11:46:59.648Z,100134.00
2023-09-01T11:49:27.364Z,100127.98
2023-09-01T11:52:00.102Z,100132.23
2023-09-01T11:54:40.679Z,100136.22
2023-09-01T11:57:15.280Z,100136.48
2023-09-01T11:59:47.051Z,100134.05
2023-09-01T12:02:18.814Z,100129.92
2023-09-01T12:04:50.288Z,100129.64
2023-09-01T12:07:31.534Z,100130.73
2023-09-01T12:09:59.104Z,100131.53
2023-09-01T12:12:37.801Z,100132.55
2023-09-01T12:15:06.108Z,100130.08
2023-09-01T12:17:35.801Z,100129.31
2023-09-01T12:20:03.397Z,100123.78
2023-09-01T12:22:31.215Z,100128.19
2023-09-01T12:25:01.312Z,100127.94
2023-09-01T12:27:31.814Z,100129.67
2023-09-01T12:29:59.273Z,100130.14
2023-09-01T12:32:28.565Z,100128.80
2023-09-01T12:34:55.964Z,100130.92
2023-09-01T12:37:23.496Z,100125.33
2023-09-01T12:39:51.828Z,100119.20
2023-09-01T12:42:19.107Z,100116.80
2023-09-01T12:44:46.660Z,100118.48
2023-09-01T12:47:14.053Z,100119.84
2023-09-01T12:49:44.496Z,100123.77
2023-09-01T12:52:11.873Z,100125.01
2023-09-01T12:54:39.047Z,100124.48
2023-09-01T12:57:07.467Z,100129.14
2023-09-01T12:59:36.083Z,100134.91
2023-09-01T13:02:04.692Z,100130.93
2023-09-01T13:04:33.851Z,100127.58
2023-09-01T13:07:04.497Z,100126.27
2023-09-01T13:09:32.560Z,100124.52
2023-09-01T13:11:59.833Z,100126.33
2023-09-01T13:14:28.001Z,100126.58
2023-09-01T13:16:55.357Z,100126.05
2023-09-01T13:19:22.471Z,100130.94
2023-09-01T13:21:49.451Z,100131.75
2023-09-01T13:24:16.550Z,100133.35
2023-09-01T13:26:44.566Z,100136.48
2023-09-01T13:29:11.918Z,100130.63
2023-09-01T13:31:39.066Z,100126.02
2023-09-01T13:34:07.866Z,100124.35
2023-09-01T13:36:35.250Z,100122.56
2023-09-01T13:39:02.467Z,100121.40
2023-09-01T13:41:30.852Z,100123.27
2023-09-01T13:43:58.431Z,100123.48
2023-09-01T13:46:27.633Z,100124.80
2023-09-01T13:48:56.805Z,100127.53
2023-09-01T13:51:24.981Z,100130.41
2023-09-01T13:53:55.322Z,100128.84
2023-09-01T13:56:25.434Z,100128.60
2023-09-01T13:58:55.584Z,100132.00
2023-09-01T14:01:28.136Z,100131.58
2023-09-01T14:03:57.127Z,100129.12
2023-09-01T14:06:26.607Z,100128.80
2023-09-01T14:08:55.301Z,100126.47
2023-09-01T14:11:26.124Z,100124.27
2023-09-01T14:13:53.789Z,100122.20
2023-09-01T14:16:32.118Z,100127.61
2023-09-01T14:19:00.803Z,100124.79
2023-09-01T14:21:27.836Z,100123.68
2023-09-01T14:23:55.195Z,100122.51
2023-09-01T14:26:23.171Z,100124.19
2023-09-01T14:28:51.155Z,100126.11
2023-09-01T14:31:19.496Z,100124.10
2023-09-01T14:33:48.657Z,100120.32
2023-09-01T14:36:16.383Z,100123.80
2023-09-01T14:38:43.355Z,100126.27
2023-09-01T14:41:20.710Z,100127.35
2023-09-01T14:43:48.302Z,100127.69
2023-09-01T14:46:18.371Z,100125.85
2023-09-01T14:48:47.356Z,100127.94
2023-09-01T14:51:15.955Z,100128.45
2023-09-01T14:53:45.682Z,100128.69
2023-09-01T14:56:15.633Z,100131.52
2023-09-01T14:58:43.790Z,100128.61
2023-09-01T15:01:10.923Z,100128.83
2023-09-01T15:03:38.767Z,100130.92
2023-09-01T15:06:06.449Z,100136.98
2023-09-01T15:08:33.854Z,100136.98
2023-09-01T15:11:04.988Z,100132.23
2023-09-01T15:13:32.914Z,100129.98
2023-09-01T15:16:00.019Z,100129.19
2023-09-01T15:18:27.624Z,100128.95
2023-09-01T15:21:21.403Z,100123.28
2023-09-01T15:23:50.374Z,100126.02
2023-09-01T15:26:18.054Z,100125.71
2023-09-01T15:28:52.688Z,100126.02
2023-09-01T15:31:20.561Z,100130.98
2023-09-01T15:33:48.116Z,100134.33
2023-09-01T15:36:15.876Z,100139.83
2023-09-01T15:38:44.153Z,100139.46
2023-09-01T15:41:12.642Z,100132.87
2023-09-01T15:43:39.978Z,100129.92
2023-09-01T15:46:10.888Z,100131.04
2023-09-01T15:48:41.561Z,100126.86
2023-09-01T15:51:09.251Z,100127.66
2023-09-01T15:53:36.876Z,100128.81
2023-09-01T15:56:05.729Z,100128.89
2023-09-01T15:58:33.318Z,100128.04
2023-09-01T16:01:14.048Z,100125.33
2023-09-01T16:03:53.828Z,100124.15
2023-09-01T16:06:26.944Z,100125.52
2023-09-01T16:08:56.027Z,100127.83
2023-09-01T16:11:23.281Z,100132.36
2023-09-01T16:13:52.496Z,100132.70
2023-09-01T16:16:24.243Z,100130.77
2023-09-01T16:18:52.060Z,100125.17
2023-09-01T16:21:23.697Z,100128.54
2023-09-01T16:23:56.662Z,100125.96
2023-09-01T16:26:24.534Z,100124.65
2023-09-01T16:28:52.521Z,100123.02
2023-09-01T16:31:23.631Z,100118.45
2023-09-01T16:33:53.439Z,100116.16
2023-09-01T16:36:20.929Z,100120.67
2023-09-01T16:38:49.595Z,100120.91
2023-09-01T16:41:17.590Z,100122.30
2023-09-01T16:43:45.430Z,100133.14
2023-09-01T16:46:13.081Z,100138.44
2023-09-01T16:48:42.106Z,100138.88
2023-09-01T16:51:09.453Z,100139.23
2023-09-01T16:53:36.861Z,100133.78
2023-09-01T16:56:04.485Z,100135.27
2023-09-01T16:58:31.654Z,100129.52
2023-09-01T17:00:59.072Z,100120.13
2023-09-01T17:03:26.316Z,100124.58
2023-09-01T17:05:53.729Z,100118.71
2023-09-01T17:08:20.884Z,100125.79
2023-09-01T17:10:51.492Z,100122.45
2023-09-01T17:13:18.674Z,100139.08
2023-09-01T17:15:46.328Z,100141.45
2023-09-01T17:18:13.778Z,100143.64
2023-09-01T17:21:01.020Z,100141.99
2023-09-01T17:23:29.194Z,100140.31
2023-09-01T17:25:56.334Z,100144.44
2023-09-01T17:28:24.262Z,100143.27
2023-09-01T17:30:51.545Z,100146.56
2023-09-01T17:33:19.733Z,100144.45
2023-09-01T17:35:49.584Z,100147.73
2023-09-01T17:38:17.421Z,100151.95
2023-09-01T17:40:45.287Z,100153.52
2023-09-01T17:43:12.691Z,100152.30
2023-09-01T17:45:40.442Z,100157.16
2023-09-01T17:48:07.945Z,100161.19
2023-09-01T17:50:35.950Z,100163.23
2023-09-01T17:53:06.100Z,100167.17
2023-09-01T17:55:50.263Z,100166.77
2023-09-01T17:58:19.017Z,100156.59
2023-09-01T18:00:49.610Z,100166.39
2023-09-01T18:03:19.047Z,100167.52
2023-09-01T18:05:47.363Z,100165.70
2023-09-01T18:08:15.126Z,100167.35
2023-09-01T18:10:42.885Z,100172.13
2023-09-01T18:13:12.625Z,100171.89
2023-09-01T18:15:39.973Z,100173.98
2023-09-01T18:18:07.995Z,100176.90
2023-09-01T18:20:35.437Z,100181.51
2023-09-01T18:23:03.879Z,100187.89
2023-09-01T18:25:33.891Z,100182.37
2023-09-01T18:28:02.166Z,100188.28
2023-09-01T18:30:30.357Z,100187.39
2023-09-01T18:33:07.530Z,100185.48
2023-09-01T18:35:36.952Z,100181.63
2023-09-01T18:38:13.874Z,100181.45
2023-09-01T18:40:41.280Z,100185.27
2023-09-01T18:43:10.875Z,100187.60
2023-09-01T18:45:39.979Z,100196.57
2023-09-01T18:48:12.522Z,100202.26
2023-09-01T18:50:43.891Z,100203.39
2023-09-01T18:53:12.674Z,100206.73
2023-09-01T18:55:45.710Z,100208.67
2023-09-01T18:58:14.712Z,100210.98
2023-09-01T19:00:43.628Z,100213.55
2023-09-01T19:03:11.308Z,100207.98
2023-09-01T19:05:42.630Z,100209.27
2023-09-01T19:08:13.366Z,100206.86
2023-09-01T19:10:42.129Z,100205.66
2023-09-01T19:13:11.732Z,100209.17
2023-09-01T19:15:39.873Z,100214.12
2023-09-01T19:18:16.067Z,100214.80
2023-09-01T19:20:44.038Z,100216.76
2023-09-01T19:23:30.305Z,100217.52
2023-09-01T19:26:01.914Z,100219.86
2023-09-01T19:28:37.843Z,100215.70
2023-09-01T19:31:10.284Z,100214.52
2023-09-01T19:33:41.591Z,100215.88
2023-09-01T19:36:12.064Z,100218.86
2023-09-01T19:38:41.637Z,100218.16
2023-09-01T19:41:10.592Z,100219.25
2023-09-01T19:43:41.536Z,100222.17
2023-09-01T19:46:09.352Z,100224.66
2023-09-01T19:48:38.918Z,100225.70
2023-09-01T19:51:08.490Z,100227.11
2023-09-01T19:53:39.370Z,100228.38
2023-09-01T19:56:15.690Z,100232.73
2023-09-01T19:58:45.252Z,100235.08
2023-09-01T20:01:22.788Z,100239.33
2023-09-01T20:03:51.717Z,100241.82
2023-09-01T20:06:25.877Z,100242.95
2023-09-01T20:08:57.284Z,100243.52
2023-09-01T20:11:26.207Z,100242.41
2023-09-01T20:13:55.169Z,100245.02
2023-09-01T20:16:26.803Z,100248.34
2023-09-01T20:18:54.264Z,100250.67
2023-09-01T20:21:22.542Z,100252.42
2023-09-01T20:23:50.807Z,100253.34
2023-09-01T20:26:19.492Z,100258.73
2023-09-01T20:28:47.073Z,100261.33
2023-09-01T20:31:15.552Z,100259.36
2023-09-01T20:33:43.436Z,100257.13
2023-09-01T20:36:11.189Z,100260.66
2023-09-01T20:38:40.658Z,100260.36
2023-09-01T20:41:08.876Z,100265.73
2023-09-01T20:43:36.458Z,100272.63
2023-09-01T20:46:05.056Z,100273.16
2023-09-01T20:48:32.772Z,100275.38
2023-09-01T20:51:00.118Z,100277.16
2023-09-01T20:53:28.311Z,100280.61
2023-09-01T20:55:56.064Z,100282.63
2023-09-01T20:58:23.513Z,100284.45
2023-09-01T21:00:50.769Z,100285.44
2023-09-01T21:03:18.834Z,100291.13
2023-09-01T21:05:49.339Z,100293.64
2023-09-01T21:08:17.127Z,100300.02
2023-09-01T21:10:44.898Z,100302.72
2023-09-01T21:13:12.718Z,100304.91
2023-09-01T21:15:41.160Z,100300.73
2023-09-01T21:18:08.414Z,100300.17
2023-09-01T21:20:35.749Z,100299.45
2023-09-01T21:23:04.443Z,100301.34
2023-09-01T21:25:35.166Z,100304.56
2023-09-01T21:28:02.929Z,100301.46
2023-09-01T21:30:30.337Z,100303.16
2023-09-01T21:32:57.734Z,100307.56
2023-09-01T21:35:31.030Z,100307.15
2023-09-01T21:37:59.615Z,100306.25
2023-09-01T21:40:27.078Z,100304.80
2023-09-01T21:42:58.063Z,100297.42
2023-09-01T21:45:26.450Z,100291.58
2023-09-01T21:47:56.382Z,100285.42
2023-09-01T21:50:24.177Z,100287.17
2023-09-01T21:52:52.645Z,100287.60
2023-09-01T21:55:20.154Z,100287.73
2023-09-01T21:57:49.001Z,100273.47
2023-09-01T22:00:16.914Z,100283.42
2023-09-01T22:02:44.840Z,100288.63
2023-09-01T22:05:13.015Z,100296.95
2023-09-01T22:07:40.281Z,100302.54
2023-09-01T22:10:09.555Z,100297.66
2023-09-01T22:12:36.924Z,100293.90
2023-09-01T22:15:04.595Z,100291.64
2023-09-01T22:17:31.889Z,100292.14
2023-09-01T22:19:59.199Z,100290.61
2023-09-01T22:22:26.353Z,100289.60
2023-09-01T22:24:53.501Z,100285.12
2023-09-01T22:27:20.637Z,100287.00
2023-09-01T22:29:47.901Z,100290.29
2023-09-01T22:32:15.179Z,100289.23
2023-09-01T22:34:42.805Z,100291.23
2023-09-01T22:37:10.969Z,100291.58
2023-09-01T22:39:38.846Z,100293.02
2023-09-01T22:42:06.850Z,100299.00
2023-09-01T22:44:34.292Z,100293.47
2023-09-01T22:47:03.278Z,100294.83
2023-09-01T22:49:33.622Z,100295.40
2023-09-01T22:52:00.854Z,100296.83
2023-09-01T22:54:28.100Z,100302.41
2023-09-01T22:56:55.162Z,100304.56
2023-09-01T22:59:22.517Z,100303.88
2023-09-01T23:01:51.138Z,100299.74
2023-09-01T23:04:23.502Z,100299.73
2023-09-01T23:06:54.502Z,100300.17
2023-09-01T23:09:23.758Z,100300.73
2023-09-01T23:11:54.660Z,100298.19
2023-09-01T23:14:23.840Z,100300.15
2023-09-01T23:16:54.928Z,100303.47
2023-09-01T23:19:24.951Z,100307.55
2023-09-01T23:21:54.906Z,100311.55
2023-09-01T23:24:25.269Z,100307.10
2023-09-01T23:26:56.683Z,100301.59
2023-09-01T23:29:29.081Z,100301.61
2023-09-01T23:32:08.790Z,100303.36
2023-09-01T23:34:41.330Z,100305.08
2023-09-01T23:37:11.421Z,100303.09
2023-09-01T23:39:49.975Z,100301.21
2023-09-01T23:42:21.564Z,100301.91
2023-09-01T23:44:52.012Z,100301.14
2023-09-01T23:47:21.770Z,100295.91
2023-09-01T23:49:49.583Z,100295.44
2023-09-01T23:52:16.964Z,100300.05
2023-09-01T23:54:45.207Z,100302.64
2023-09-01T23:57:14.668Z,100303.53
2023-09-01T23:59:45.344Z,100304.89
